Time;durP1;ratioP1;P1;durP2;ratioP2;P2;SDS_P1;SDS_P2;PMS_P1;PMS_P2;Temp;Humidity;BMP_temperature;BMP_pressure;BME280_temperature;BME280_humidity;BME280_pressure;Samples;Min_cycle;Max_cycle;Signal;HPM_P1;HPM_P2
2022/09/06 00:02:24;;;;;;;8.25;4.35;;;;;;;;;;10394981;28;20453;-79
2022/09/06 00:07:46;;;;;;;7.57;3.80;;;;;;;;;;10415330;28;20418;-79
2022/09/06 00:13:10;;;;;;;5.75;3.00;;;12.20;99.90;;;;;;10437341;28;20262;-79
2022/09/06 00:18:31;;;;;;;6.13;3.30;;;;;;;;;;10407363;28;20461;-79
2022/09/06 00:23:53;;;;;;;9.90;3.58;;;;;;;;;;10437757;28;20251;-79
2022/09/06 00:29:15;;;;;;;8.90;3.55;;;;;;;;;;10435343;28;20202;-80
2022/09/06 00:34:36;;;;;;;6.07;3.30;;;;;;;;;;10435328;28;20227;-78
2022/09/06 00:40:00;;;;;;;7.23;3.93;;;12.00;99.90;;;;;;10436855;28;20249;-79
2022/09/06 00:45:23;;;;;;;6.40;3.58;;;;;;;;;;10426274;28;20467;-80
2022/09/06 00:50:50;;;;;;;5.38;3.35;;;11.60;99.90;;;;;;10434501;28;20219;-79
2022/09/06 00:56:11;;;;;;;6.85;4.10;;;;;;;;;;10414436;28;20214;-79
2022/09/06 01:01:33;;;;;;;6.43;3.80;;;;;;;;;;10392259;28;20227;-79
2022/09/06 01:07:01;;;;;;;5.30;3.15;;;;;;;;;;10391913;28;20204;-79
2022/09/06 01:12:36;;;;;;;6.10;3.50;;;11.90;99.90;;;;;;10418761;28;20235;-79
2022/09/06 01:18:04;;;;;;;3.90;2.83;;;;;;;;;;10433238;28;20251;-79
2022/09/06 01:23:44;;;;;;;4.87;2.93;;;;;;;;;;10435180;28;20281;-79
2022/09/06 01:29:12;;;;;;;5.43;3.33;;;;;;;;;;10448897;28;20289;-79
2022/09/06 01:34:45;;;;;;;3.22;2.33;;;;;;;;;;10418853;28;20191;-79
2022/09/06 01:40:08;;;;;;;5.32;2.85;;;;;;;;;;10433845;28;20452;-79
2022/09/06 01:45:53;;;;;;;4.07;2.63;;;;;;;;;;10422784;28;20285;-79
2022/09/06 01:51:14;;;;;;;5.87;3.47;;;;;;;;;;10347356;28;20296;-79
2022/09/06 01:56:48;;;;;;;6.90;2.95;;;;;;;;;;10328567;28;20242;-80
2022/09/06 02:02:12;;;;;;;4.87;2.87;;;;;;;;;;10320084;28;20242;-79
2022/09/06 02:07:34;;;;;;;3.73;2.57;;;;;;;;;;10329423;28;20543;-79
2022/09/06 02:13:00;;;;;;;3.20;2.23;;;11.40;99.90;;;;;;10359445;28;20304;-79
2022/09/06 02:18:25;;;;;;;6.07;2.90;;;;;;;;;;10346259;28;20308;-79
2022/09/06 02:23:47;;;;;;;4.60;3.20;;;11.20;99.90;;;;;;10346173;28;20245;-79
2022/09/06 02:29:09;;;;;;;5.33;3.43;;;;;;;;;;10415683;28;20228;-79
2022/09/06 02:34:31;;;;;;;9.90;6.20;;;;;;;;;;10416924;28;20258;-80
2022/09/06 02:39:54;;;;;;;11.50;4.80;;;;;;;;;;10433142;28;20228;-80
2022/09/06 02:45:16;;;;;;;6.30;4.20;;;;;;;;;;10432344;28;20235;-80
2022/09/06 02:50:38;;;;;;;5.73;3.30;;;;;;;;;;10431132;28;20194;-80
2022/09/06 02:55:59;;;;;;;3.90;2.63;;;;;;;;;;10410084;28;20221;-81
2022/09/06 03:01:21;;;;;;;4.37;2.50;;;;;;;;;;10389239;28;20243;-80
2022/09/06 03:06:43;;;;;;;7.40;2.20;;;;;;;;;;10375047;28;20469;-80
2022/09/06 03:12:04;;;;;;;5.50;2.53;;;;;;;;;;10405475;28;20310;-80
2022/09/06 03:17:26;;;;;;;3.67;2.30;;;;;;;;;;10438222;28;20357;-80
2022/09/06 03:22:47;;;;;;;4.40;2.80;;;;;;;;;;10429130;28;20238;-80
2022/09/06 03:28:08;;;;;;;5.30;2.97;;;10.80;99.90;;;;;;10434561;28;20501;-81
2022/09/06 03:33:30;;;;;;;4.27;2.60;;;10.90;99.90;;;;;;10423360;28;20214;-80
2022/09/06 03:38:52;;;;;;;4.20;2.93;;;;;;;;;;10423496;28;20211;-80
2022/09/06 03:44:14;;;;;;;4.00;2.80;;;;;;;;;;10422689;28;20313;-80
2022/09/06 03:49:36;;;;;;;5.00;2.67;;;;;;;;;;10426988;28;20300;-80
2022/09/06 03:54:59;;;;;;;7.37;2.97;;;;;;;;;;10426521;28;20216;-80
2022/09/06 04:00:22;;;;;;;9.33;3.43;;;;;;;;;;10395064;28;20295;-79
2022/09/06 04:05:45;;;;;;;5.27;3.70;;;;;;;;;;10397038;28;20220;-80
2022/09/06 04:11:07;;;;;;;6.70;3.50;;;;;;;;;;10394565;28;20223;-80
2022/09/06 04:16:28;;;;;;;3.43;2.93;;;10.50;99.90;;;;;;10380802;28;20215;-80
2022/09/06 04:21:50;;;;;;;3.40;2.30;;;10.40;99.90;;;;;;10413134;28;20327;-79
2022/09/06 04:27:11;;;;;;;2.80;2.43;;;10.40;99.90;;;;;;10435208;28;20196;-79
2022/09/06 04:32:32;;;;;;;2.97;2.20;;;10.40;99.90;;;;;;10448879;28;20247;-80
2022/09/06 04:37:54;;;;;;;4.00;2.33;;;10.50;99.90;;;;;;10420460;28;20204;-80
2022/09/06 04:43:15;;;;;;;5.50;2.67;;;10.40;99.90;;;;;;10434303;28;20419;-81
2022/09/06 04:48:37;;;;;;;11.53;3.00;;;10.50;99.90;;;;;;10449615;28;20223;-80
2022/09/06 04:53:59;;;;;;;3.90;2.70;;;10.50;99.90;;;;;;10427199;28;20194;-80
2022/09/06 04:59:20;;;;;;;4.93;2.90;;;10.50;99.90;;;;;;10392441;28;20494;-80
2022/09/06 05:04:41;;;;;;;3.50;2.47;;;10.60;99.90;;;;;;10392455;28;20195;-80
2022/09/06 05:10:03;;;;;;;6.83;3.47;;;10.70;99.90;;;;;;10417455;28;20194;-79
2022/09/06 05:15:24;;;;;;;9.00;4.40;;;10.80;99.90;;;;;;10434005;28;20217;-81
2022/09/06 05:20:53;;;;;;;7.43;2.80;;;11.00;99.90;;;;;;10432177;28;20247;-79
2022/09/06 05:26:14;;;;;;;5.70;3.20;;;11.10;99.90;;;;;;10432381;28;20487;-79
2022/09/06 05:31:36;;;;;;;4.47;2.70;;;11.20;99.90;;;;;;10432963;28;20247;-81
2022/09/06 05:36:57;;;;;;;5.37;3.70;;;11.40;99.90;;;;;;10418100;28;20200;-81
2022/09/06 05:42:18;;;;;;;9.33;5.67;;;11.60;99.90;;;;;;10433908;28;20230;-81
2022/09/06 05:47:40;;;;;;;10.63;7.97;;;11.80;99.90;;;;;;10430654;28;20266;-81
2022/09/06 05:53:01;;;;;;;8.57;7.03;;;12.00;99.90;;;;;;10376548;28;20211;-81
2022/09/06 05:58:23;;;;;;;10.73;5.47;;;12.30;99.90;;;;;;10404290;28;20201;-82
2022/09/06 06:03:53;;;;;;;6.45;4.10;;;12.60;99.90;;;;;;10403930;28;20232;-81
2022/09/06 06:09:15;;;;;;;6.55;3.53;;;13.00;99.90;;;;;;10408908;28;20219;-80
2022/09/06 06:14:37;;;;;;;4.68;3.10;;;;;;;;;;10444964;28;20228;-81
2022/09/06 17:02:37;;;;;;;6.10;2.38;;;18.70;1.00;;;;;;10597210;27;20559;-79
2022/09/06 17:07:59;;;;;;;6.68;1.90;;;18.20;1.00;;;;;;10578782;28;20219;-77
2022/09/06 17:13:21;;;;;;;3.65;2.28;;;;;;;;;;10578837;28;20209;-77
2022/09/06 17:18:43;;;;;;;3.53;2.53;;;17.80;1.00;;;;;;10588532;27;20247;-78
2022/09/06 17:24:06;;;;;;;2.40;1.70;;;17.70;1.00;;;;;;10603549;27;20444;-77
2022/09/06 17:29:27;;;;;;;2.30;1.85;;;17.50;1.00;;;;;;10573088;28;20200;-76
2022/09/06 17:34:49;;;;;;;2.25;1.98;;;17.30;1.00;;;;;;10593127;28;20183;-80
2022/09/06 17:40:10;;;;;;;3.42;2.45;;;17.00;1.00;;;;;;10595818;28;20228;-78
2022/09/06 17:45:41;;;;;;;3.88;3.40;;;17.00;1.00;;;;;;10580957;28;20495;-75
2022/09/06 17:51:06;;;;;;;8.63;5.38;;;16.90;1.00;;;;;;10557754;28;20370;-75
2022/09/06 17:56:29;;;;;;;13.02;7.07;;;16.80;1.00;;;;;;10552622;28;20205;-76
2022/09/06 18:01:51;;;;;;;14.02;6.40;;;16.70;1.00;;;;;;10553092;28;20283;-75
2022/09/06 18:07:12;;;;;;;9.18;4.97;;;16.60;1.00;;;;;;10576693;28;20197;-76
2022/09/06 18:12:33;;;;;;;8.52;3.78;;;16.50;1.00;;;;;;10542521;28;20197;-75
2022/09/06 18:17:55;;;;;;;23.73;10.98;;;16.20;1.00;;;;;;10574863;28;20511;-75
2022/09/06 18:23:17;;;;;;;8.13;5.65;;;16.10;1.00;;;;;;10553136;28;20213;-75
2022/09/06 18:28:39;;;;;;;11.32;7.07;;;16.00;1.00;;;;;;10524534;28;20489;-76
2022/09/06 18:34:00;;;;;;;14.27;8.20;;;15.90;1.00;;;;;;10524731;28;20212;-76
2022/09/06 18:39:22;;;;;;;8.85;4.55;;;15.90;1.00;;;;;;10506177;28;20222;-75
2022/09/06 18:44:43;;;;;;;7.10;3.10;;;15.80;1.00;;;;;;10537090;28;20193;-76
2022/09/06 18:50:06;;;;;;;4.82;3.35;;;15.70;1.00;;;;;;10562504;28;20280;-76
2022/09/06 18:55:28;;;;;;;6.03;3.85;;;;;;;;;;10565398;28;20204;-75
2022/09/06 19:00:51;;;;;;;6.20;3.60;;;15.40;1.00;;;;;;10546704;28;20257;-76
2022/09/06 19:06:15;;;;;;;6.50;3.60;;;15.40;1.00;;;;;;10533556;28;20201;-75
2022/09/06 19:11:37;;;;;;;6.10;3.45;;;15.40;1.00;;;;;;10522665;28;20359;-75
2022/09/06 19:16:58;;;;;;;6.18;3.45;;;15.30;1.00;;;;;;10539436;28;20191;-78
2022/09/06 19:22:21;;;;;;;5.82;3.90;;;15.20;1.00;;;;;;10599679;28;20215;-75
2022/09/06 19:27:42;;;;;;;6.32;3.60;;;15.20;99.90;;;;;;10563994;28;20194;-77
2022/09/06 19:33:07;;;;;;;4.90;3.17;;;15.20;99.90;;;;;;10563405;28;20192;-78
2022/09/06 19:38:30;;;;;;;5.70;3.60;;;15.10;99.90;;;;;;10563670;28;20231;-75
2022/09/06 19:43:58;;;;;;;3.78;2.72;;;15.00;99.90;;;;;;10563535;28;20364;-75
2022/09/06 19:49:19;;;;;;;4.88;3.03;;;14.90;99.90;;;;;;10544389;28;20202;-77
2022/09/06 19:54:41;;;;;;;4.20;2.67;;;14.90;1.00;;;;;;10534288;28;20201;-78
2022/09/06 20:00:04;;;;;;;5.53;2.30;;;14.90;49.60;;;;;;10520410;28;20477;-80
2022/09/06 20:05:31;;;;;;;3.20;2.75;;;14.90;99.90;;;;;;10526687;28;20271;-77
2022/09/06 20:10:58;;;;;;;4.35;2.72;;;14.80;99.90;;;;;;10505366;28;20199;-77
2022/09/06 20:16:19;;;;;;;5.03;3.20;;;14.70;1.00;;;;;;10539653;28;20185;-76
2022/09/06 20:21:42;;;;;;;5.72;3.13;;;;;;;;;;10585239;28;20289;-77
2022/09/06 20:27:03;;;;;;;5.88;3.28;;;14.60;1.00;;;;;;10561793;28;20193;-79
2022/09/06 20:32:25;;;;;;;7.03;3.58;;;14.60;1.00;;;;;;10561063;28;20187;-80
2022/09/06 20:37:46;;;;;;;3.88;2.80;;;14.60;1.00;;;;;;10543362;28;20193;-79
2022/09/06 20:43:07;;;;;;;4.03;2.70;;;14.40;1.00;;;;;;10543282;28;20218;-80
2022/09/06 20:48:33;;;;;;;4.57;2.08;;;14.40;99.90;;;;;;10561239;28;20412;-82
2022/09/06 20:53:57;;;;;;;2.67;1.63;;;14.20;99.90;;;;;;10528788;28;20209;-78
2022/09/06 20:59:18;;;;;;;2.42;1.75;;;14.20;99.90;;;;;;10545647;28;20281;-76
2022/09/06 21:04:40;;;;;;;2.83;1.70;;;14.10;1.00;;;;;;10542266;28;20483;-77
2022/09/06 21:10:02;;;;;;;3.75;1.95;;;14.10;1.00;;;;;;10517826;28;20227;-77
2022/09/06 21:15:24;;;;;;;3.70;2.15;;;14.10;5.50;;;;;;10517435;28;20241;-76
2022/09/06 21:20:56;;;;;;;3.30;1.95;;;14.00;99.90;;;;;;10599504;28;20215;-80
2022/09/06 21:26:19;;;;;;;4.50;2.05;;;13.90;99.90;;;;;;10520876;28;20208;-80
2022/09/06 21:31:40;;;;;;;3.50;1.77;;;13.90;99.90;;;;;;10517986;28;20216;-77
2022/09/06 21:37:02;;;;;;;4.57;2.88;;;13.80;1.00;;;;;;10500561;28;20490;-80
2022/09/06 21:42:23;;;;;;;2.67;2.00;;;13.70;1.00;;;;;;10500054;28;20268;-81
2022/09/06 21:47:44;;;;;;;3.35;2.15;;;13.70;1.00;;;;;;10543217;28;20274;-78
2022/09/06 21:53:06;;;;;;;2.40;1.98;;;13.50;77.80;;;;;;10549441;28;20558;-79
2022/09/06 21:58:27;;;;;;;2.92;1.80;;;13.50;99.90;;;;;;10567203;28;20303;-77
2022/09/06 22:03:50;;;;;;;4.75;2.13;;;13.40;99.90;;;;;;10551721;28;20226;-78
2022/09/06 22:09:12;;;;;;;3.58;2.03;;;13.30;99.90;;;;;;10567249;28;20201;-80
2022/09/06 22:14:33;;;;;;;2.00;1.63;;;13.30;99.90;;;;;;10548630;28;20202;-78
2022/09/06 22:19:54;;;;;;;3.10;1.52;;;13.30;99.90;;;;;;10581826;28;20224;-79
2022/09/06 22:25:16;;;;;;;2.70;1.80;;;13.30;99.90;;;;;;10560130;28;20226;-76
2022/09/06 22:30:37;;;;;;;4.28;1.83;;;13.20;99.90;;;;;;10566336;28;20194;-75
2022/09/06 22:35:59;;;;;;;4.03;1.70;;;13.20;99.90;;;;;;10547861;28;20201;-76
2022/09/06 22:41:20;;;;;;;1.95;1.55;;;13.10;99.90;;;;;;10565740;28;20585;-75
2022/09/06 22:46:41;;;;;;;2.35;1.80;;;13.00;99.90;;;;;;10533563;28;20204;-77
2022/09/06 22:52:03;;;;;;;2.42;1.70;;;13.00;1.00;;;;;;10564608;28;20205;-77
2022/09/06 22:57:26;;;;;;;2.47;1.60;;;12.90;99.90;;;;;;10511090;28;20196;-78
2022/09/06 23:02:47;;;;;;;4.38;1.75;;;12.90;99.90;;;;;;10530748;28;20576;-77
2022/09/06 23:08:08;;;;;;;4.03;1.90;;;12.80;1.00;;;;;;10523139;28;20191;-76
2022/09/06 23:13:55;;;;;;;7.85;1.60;;;12.70;1.00;;;;;;10510853;28;20207;-77
2022/09/06 23:19:16;;;;;;;2.28;1.77;;;12.70;1.00;;;;;;10577124;28;20298;-75
2022/09/06 23:24:38;;;;;;;2.10;1.30;;;12.70;1.00;;;;;;10566064;28;20488;-78
2022/09/06 23:30:00;;;;;;;3.40;2.00;;;12.70;1.00;;;;;;10563955;28;20201;-77
2022/09/06 23:35:22;;;;;;;2.40;1.67;;;12.50;1.00;;;;;;10563532;28;20198;-77
2022/09/06 23:40:43;;;;;;;5.05;2.00;;;12.50;1.00;;;;;;10563445;28;20215;-76
2022/09/06 23:46:06;;;;;;;3.70;1.80;;;12.50;1.00;;;;;;10548625;28;20196;-79
2022/09/06 23:51:27;;;;;;;2.33;1.85;;;12.40;1.00;;;;;;10562550;28;20194;-77
2022/09/06 23:56:49;;;;;;;5.68;1.83;;;12.40;1.00;;;;;;10513472;28;20196;-76
